sensor_id;sensor_type;location;lat;lon;timestamp;P1;durP1;ratioP1;P2;durP2;ratioP2
10617;SDS011;5356;43.526;26.534;2024-03-29T00:00:53;7.53;;;3.67;;
10617;SDS011;5356;43.526;26.534;2024-03-29T00:03:18;7.78;;;4.15;;
10617;SDS011;5356;43.526;26.534;2024-03-29T00:05:44;10.43;;;4.75;;
10617;SDS011;5356;43.526;26.534;2024-03-29T00:08:10;8.68;;;4.70;;
10617;SDS011;5356;43.526;26.534;2024-03-29T00:10:36;5.35;;;3.08;;
10617;SDS011;5356;43.526;26.534;2024-03-29T00:13:01;6.53;;;2.90;;
10617;SDS011;5356;43.526;26.534;2024-03-29T00:15:31;7.95;;;3.72;;
10617;SDS011;5356;43.526;26.534;2024-03-29T00:17:57;7.38;;;3.95;;
10617;SDS011;5356;43.526;26.534;2024-03-29T00:20:23;13.10;;;4.75;;
10617;SDS011;5356;43.526;26.534;2024-03-29T00:22:49;9.80;;;3.58;;
10617;SDS011;5356;43.526;26.534;2024-03-29T00:25:14;7.57;;;2.42;;
10617;SDS011;5356;43.526;26.534;2024-03-29T00:27:39;4.43;;;2.83;;
10617;SDS011;5356;43.526;26.534;2024-03-29T00:30:05;7.00;;;3.83;;
10617;SDS011;5356;43.526;26.534;2024-03-29T00:32:31;12.68;;;5.47;;
10617;SDS011;5356;43.526;26.534;2024-03-29T00:34:56;11.18;;;4.85;;
10617;SDS011;5356;43.526;26.534;2024-03-29T00:37:23;11.30;;;5.00;;
10617;SDS011;5356;43.526;26.534;2024-03-29T00:39:49;10.98;;;5.32;;
10617;SDS011;5356;43.526;26.534;2024-03-29T00:42:14;19.85;;;9.52;;
10617;SDS011;5356;43.526;26.534;2024-03-29T00:44:44;22.63;;;8.60;;
10617;SDS011;5356;43.526;26.534;2024-03-29T00:47:10;9.15;;;3.90;;
10617;SDS011;5356;43.526;26.534;2024-03-29T00:49:35;7.13;;;3.17;;
10617;SDS011;5356;43.526;26.534;2024-03-29T00:52:02;10.48;;;3.53;;
10617;SDS011;5356;43.526;26.534;2024-03-29T00:54:28;13.73;;;5.65;;
10617;SDS011;5356;43.526;26.534;2024-03-29T00:56:54;28.15;;;11.55;;
10617;SDS011;5356;43.526;26.534;2024-03-29T00:59:19;12.15;;;6.45;;
10617;SDS011;5356;43.526;26.534;2024-03-29T01:01:45;14.38;;;5.25;;
10617;SDS011;5356;43.526;26.534;2024-03-29T01:04:11;9.77;;;3.80;;
10617;SDS011;5356;43.526;26.534;2024-03-29T01:06:37;8.98;;;3.67;;
10617;SDS011;5356;43.526;26.534;2024-03-29T01:09:03;8.50;;;2.97;;
10617;SDS011;5356;43.526;26.534;2024-03-29T01:11:29;6.72;;;3.10;;
10617;SDS011;5356;43.526;26.534;2024-03-29T01:13:55;5.95;;;2.67;;
10617;SDS011;5356;43.526;26.534;2024-03-29T01:16:21;7.75;;;2.97;;
10617;SDS011;5356;43.526;26.534;2024-03-29T01:18:46;8.35;;;3.22;;
10617;SDS011;5356;43.526;26.534;2024-03-29T01:21:12;7.75;;;3.40;;
10617;SDS011;5356;43.526;26.534;2024-03-29T01:23:38;12.25;;;6.22;;
10617;SDS011;5356;43.526;26.534;2024-03-29T01:26:04;11.27;;;5.13;;
10617;SDS011;5356;43.526;26.534;2024-03-29T01:28:31;10.27;;;4.40;;
10617;SDS011;5356;43.526;26.534;2024-03-29T01:30:56;11.07;;;4.18;;
10617;SDS011;5356;43.526;26.534;2024-03-29T01:33:23;11.02;;;5.10;;
10617;SDS011;5356;43.526;26.534;2024-03-29T01:35:49;6.28;;;3.20;;
10617;SDS011;5356;43.526;26.534;2024-03-29T01:38:14;7.38;;;3.08;;
10617;SDS011;5356;43.526;26.534;2024-03-29T01:40:40;7.35;;;3.47;;
10617;SDS011;5356;43.526;26.534;2024-03-29T01:43:06;6.45;;;3.00;;
10617;SDS011;5356;43.526;26.534;2024-03-29T01:45:34;7.78;;;3.38;;
10617;SDS011;5356;43.526;26.534;2024-03-29T01:48:03;8.10;;;3.53;;
10617;SDS011;5356;43.526;26.534;2024-03-29T01:50:29;15.63;;;6.13;;
10617;SDS011;5356;43.526;26.534;2024-03-29T01:52:55;15.27;;;6.07;;
10617;SDS011;5356;43.526;26.534;2024-03-29T01:55:20;9.65;;;3.72;;
10617;SDS011;5356;43.526;26.534;2024-03-29T01:57:46;5.70;;;3.45;;
10617;SDS011;5356;43.526;26.534;2024-03-29T02:00:11;4.63;;;2.55;;
10617;SDS011;5356;43.526;26.534;2024-03-29T02:02:37;7.95;;;3.80;;
10617;SDS011;5356;43.526;26.534;2024-03-29T02:05:03;7.50;;;3.10;;
10617;SDS011;5356;43.526;26.534;2024-03-29T02:07:29;7.03;;;4.10;;
10617;SDS011;5356;43.526;26.534;2024-03-29T02:09:55;7.75;;;2.85;;
10617;SDS011;5356;43.526;26.534;2024-03-29T02:12:20;8.43;;;3.13;;
10617;SDS011;5356;43.526;26.534;2024-03-29T02:14:46;6.07;;;3.70;;
10617;SDS011;5356;43.526;26.534;2024-03-29T02:17:11;9.43;;;3.53;;
10617;SDS011;5356;43.526;26.534;2024-03-29T02:19:37;10.70;;;3.30;;
10617;SDS011;5356;43.526;26.534;2024-03-29T02:22:02;6.07;;;2.42;;
10617;SDS011;5356;43.526;26.534;2024-03-29T02:24:32;12.55;;;4.40;;
10617;SDS011;5356;43.526;26.534;2024-03-29T02:26:57;7.07;;;2.55;;
10617;SDS011;5356;43.526;26.534;2024-03-29T02:29:23;6.85;;;2.90;;
10617;SDS011;5356;43.526;26.534;2024-03-29T02:31:49;8.05;;;3.03;;
10617;SDS011;5356;43.526;26.534;2024-03-29T02:34:15;6.63;;;2.85;;
10617;SDS011;5356;43.526;26.534;2024-03-29T02:36:41;9.85;;;2.88;;
10617;SDS011;5356;43.526;26.534;2024-03-29T02:39:09;9.15;;;3.33;;
10617;SDS011;5356;43.526;26.534;2024-03-29T02:41:35;8.48;;;3.25;;
10617;SDS011;5356;43.526;26.534;2024-03-29T02:44:00;10.93;;;3.00;;
10617;SDS011;5356;43.526;26.534;2024-03-29T02:46:26;7.35;;;2.60;;
10617;SDS011;5356;43.526;26.534;2024-03-29T02:48:51;6.40;;;3.33;;
10617;SDS011;5356;43.526;26.534;2024-03-29T02:51:17;7.18;;;2.90;;
10617;SDS011;5356;43.526;26.534;2024-03-29T02:53:42;11.90;;;3.58;;
10617;SDS011;5356;43.526;26.534;2024-03-29T02:56:08;5.53;;;3.10;;
10617;SDS011;5356;43.526;26.534;2024-03-29T02:58:36;9.43;;;3.25;;
10617;SDS011;5356;43.526;26.534;2024-03-29T03:01:05;10.68;;;3.38;;
10617;SDS011;5356;43.526;26.534;2024-03-29T03:03:34;6.00;;;2.70;;
10617;SDS011;5356;43.526;26.534;2024-03-29T03:06:00;9.35;;;3.15;;
10617;SDS011;5356;43.526;26.534;2024-03-29T03:08:27;11.15;;;3.40;;
10617;SDS011;5356;43.526;26.534;2024-03-29T03:11:12;7.93;;;4.18;;
10617;SDS011;5356;43.526;26.534;2024-03-29T03:13:37;9.43;;;3.53;;
10617;SDS011;5356;43.526;26.534;2024-03-29T03:16:03;7.00;;;2.97;;
10617;SDS011;5356;43.526;26.534;2024-03-29T03:18:29;4.97;;;2.60;;
10617;SDS011;5356;43.526;26.534;2024-03-29T03:20:54;6.50;;;2.70;;
10617;SDS011;5356;43.526;26.534;2024-03-29T03:23:23;7.00;;;2.53;;
10617;SDS011;5356;43.526;26.534;2024-03-29T03:25:55;6.13;;;2.50;;
10617;SDS011;5356;43.526;26.534;2024-03-29T03:28:25;7.47;;;3.20;;
10617;SDS011;5356;43.526;26.534;2024-03-29T03:30:51;7.15;;;3.03;;
10617;SDS011;5356;43.526;26.534;2024-03-29T03:33:18;6.57;;;2.47;;
10617;SDS011;5356;43.526;26.534;2024-03-29T03:35:44;6.15;;;2.10;;
10617;SDS011;5356;43.526;26.534;2024-03-29T03:38:10;9.68;;;3.15;;
10617;SDS011;5356;43.526;26.534;2024-03-29T03:40:36;5.30;;;2.33;;
10617;SDS011;5356;43.526;26.534;2024-03-29T03:43:03;9.07;;;2.80;;
10617;SDS011;5356;43.526;26.534;2024-03-29T03:45:33;10.23;;;2.72;;
10617;SDS011;5356;43.526;26.534;2024-03-29T03:48:09;9.70;;;2.50;;
10617;SDS011;5356;43.526;26.534;2024-03-29T03:50:37;9.70;;;2.35;;
10617;SDS011;5356;43.526;26.534;2024-03-29T03:53:03;7.35;;;2.58;;
10617;SDS011;5356;43.526;26.534;2024-03-29T03:55:29;5.50;;;3.15;;
10617;SDS011;5356;43.526;26.534;2024-03-29T03:57:54;8.73;;;2.53;;
10617;SDS011;5356;43.526;26.534;2024-03-29T04:00:20;10.32;;;2.97;;
10617;SDS011;5356;43.526;26.534;2024-03-29T04:02:48;7.05;;;3.28;;
10617;SDS011;5356;43.526;26.534;2024-03-29T04:05:14;10.23;;;2.55;;
10617;SDS011;5356;43.526;26.534;2024-03-29T04:07:41;11.70;;;2.40;;
10617;SDS011;5356;43.526;26.534;2024-03-29T04:10:06;7.65;;;2.75;;
10617;SDS011;5356;43.526;26.534;2024-03-29T04:12:32;10.60;;;2.67;;
10617;SDS011;5356;43.526;26.534;2024-03-29T04:14:57;4.20;;;1.92;;
10617;SDS011;5356;43.526;26.534;2024-03-29T04:17:23;5.43;;;2.55;;
10617;SDS011;5356;43.526;26.534;2024-03-29T04:19:48;8.82;;;4.15;;
10617;SDS011;5356;43.526;26.534;2024-03-29T04:22:14;4.28;;;2.75;;
10617;SDS011;5356;43.526;26.534;2024-03-29T04:24:39;8.82;;;3.15;;
10617;SDS011;5356;43.526;26.534;2024-03-29T04:27:05;14.50;;;4.72;;
10617;SDS011;5356;43.526;26.534;2024-03-29T04:29:33;11.50;;;3.80;;
10617;SDS011;5356;43.526;26.534;2024-03-29T04:31:58;10.50;;;3.45;;
10617;SDS011;5356;43.526;26.534;2024-03-29T04:34:23;12.27;;;3.53;;
10617;SDS011;5356;43.526;26.534;2024-03-29T04:36:49;25.90;;;13.63;;
10617;SDS011;5356;43.526;26.534;2024-03-29T04:39:15;17.95;;;10.50;;
10617;SDS011;5356;43.526;26.534;2024-03-29T04:41:40;20.55;;;14.50;;
10617;SDS011;5356;43.526;26.534;2024-03-29T04:44:06;10.73;;;6.53;;
10617;SDS011;5356;43.526;26.534;2024-03-29T04:46:33;9.90;;;5.07;;
10617;SDS011;5356;43.526;26.534;2024-03-29T04:48:58;9.90;;;6.30;;
10617;SDS011;5356;43.526;26.534;2024-03-29T04:51:24;15.77;;;5.88;;
10617;SDS011;5356;43.526;26.534;2024-03-29T04:53:49;12.88;;;6.15;;
10617;SDS011;5356;43.526;26.534;2024-03-29T04:56:15;18.38;;;5.20;;
10617;SDS011;5356;43.526;26.534;2024-03-29T04:58:41;22.80;;;8.85;;
10617;SDS011;5356;43.526;26.534;2024-03-29T05:01:07;19.20;;;9.68;;
10617;SDS011;5356;43.526;26.534;2024-03-29T05:03:32;15.07;;;6.47;;
10617;SDS011;5356;43.526;26.534;2024-03-29T05:05:58;14.48;;;6.30;;
10617;SDS011;5356;43.526;26.534;2024-03-29T05:08:23;13.32;;;6.03;;
10617;SDS011;5356;43.526;26.534;2024-03-29T05:10:49;20.65;;;7.15;;
10617;SDS011;5356;43.526;26.534;2024-03-29T05:13:15;14.23;;;7.32;;
10617;SDS011;5356;43.526;26.534;2024-03-29T05:15:41;13.93;;;6.65;;
10617;SDS011;5356;43.526;26.534;2024-03-29T05:18:07;13.88;;;5.00;;
10617;SDS011;5356;43.526;26.534;2024-03-29T05:20:33;16.05;;;6.82;;
10617;SDS011;5356;43.526;26.534;2024-03-29T05:22:58;17.40;;;5.50;;
10617;SDS011;5356;43.526;26.534;2024-03-29T05:25:24;11.05;;;4.10;;
10617;SDS011;5356;43.526;26.534;2024-03-29T05:27:50;15.07;;;5.43;;
10617;SDS011;5356;43.526;26.534;2024-03-29T05:30:16;13.32;;;4.72;;
10617;SDS011;5356;43.526;26.534;2024-03-29T05:32:42;12.20;;;4.70;;
10617;SDS011;5356;43.526;26.534;2024-03-29T05:35:08;12.57;;;3.72;;
10617;SDS011;5356;43.526;26.534;2024-03-29T05:37:34;26.02;;;8.25;;
10617;SDS011;5356;43.526;26.534;2024-03-29T05:40:00;38.17;;;13.65;;
10617;SDS011;5356;43.526;26.534;2024-03-29T05:42:29;16.55;;;5.93;;
10617;SDS011;5356;43.526;26.534;2024-03-29T05:44:56;15.38;;;5.75;;
10617;SDS011;5356;43.526;26.534;2024-03-29T05:47:22;10.93;;;4.63;;
10617;SDS011;5356;43.526;26.534;2024-03-29T05:49:48;11.27;;;4.95;;
10617;SDS011;5356;43.526;26.534;2024-03-29T05:52:14;15.93;;;5.10;;
10617;SDS011;5356;43.526;26.534;2024-03-29T05:54:40;18.08;;;8.40;;
10617;SDS011;5356;43.526;26.534;2024-03-29T05:57:06;24.75;;;15.77;;
10617;SDS011;5356;43.526;26.534;2024-03-29T05:59:33;19.10;;;9.10;;
10617;SDS011;5356;43.526;26.534;2024-03-29T06:01:58;19.13;;;12.32;;
10617;SDS011;5356;43.526;26.534;2024-03-29T06:04:24;18.75;;;6.30;;
10617;SDS011;5356;43.526;26.534;2024-03-29T06:06:57;13.25;;;5.55;;
10617;SDS011;5356;43.526;26.534;2024-03-29T06:09:26;10.40;;;4.20;;
10617;SDS011;5356;43.526;26.534;2024-03-29T06:11:52;19.40;;;5.43;;
10617;SDS011;5356;43.526;26.534;2024-03-29T06:14:19;12.13;;;5.00;;
10617;SDS011;5356;43.526;26.534;2024-03-29T06:17:03;19.17;;;4.75;;
10617;SDS011;5356;43.526;26.534;2024-03-29T06:19:47;14.93;;;5.50;;
10617;SDS011;5356;43.526;26.534;2024-03-29T06:22:13;12.38;;;5.75;;
10617;SDS011;5356;43.526;26.534;2024-03-29T06:24:39;13.55;;;5.82;;
10617;SDS011;5356;43.526;26.534;2024-03-29T06:27:05;14.13;;;5.53;;
10617;SDS011;5356;43.526;26.534;2024-03-29T06:29:30;10.55;;;5.00;;
10617;SDS011;5356;43.526;26.534;2024-03-29T06:31:56;14.05;;;6.72;;
10617;SDS011;5356;43.526;26.534;2024-03-29T06:34:22;12.45;;;5.95;;
10617;SDS011;5356;43.526;26.534;2024-03-29T06:36:47;13.80;;;6.43;;
10617;SDS011;5356;43.526;26.534;2024-03-29T06:39:13;14.25;;;6.78;;
10617;SDS011;5356;43.526;26.534;2024-03-29T06:41:38;19.00;;;7.28;;
10617;SDS011;5356;43.526;26.534;2024-03-29T06:44:04;18.13;;;7.80;;
10617;SDS011;5356;43.526;26.534;2024-03-29T06:46:29;15.43;;;5.72;;
10617;SDS011;5356;43.526;26.534;2024-03-29T06:48:55;10.38;;;5.35;;
10617;SDS011;5356;43.526;26.534;2024-03-29T06:51:20;13.13;;;5.03;;
10617;SDS011;5356;43.526;26.534;2024-03-29T06:53:48;36.40;;;20.33;;
10617;SDS011;5356;43.526;26.534;2024-03-29T06:56:14;13.27;;;8.80;;
10617;SDS011;5356;43.526;26.534;2024-03-29T06:58:40;16.75;;;7.78;;
10617;SDS011;5356;43.526;26.534;2024-03-29T07:01:06;19.83;;;6.82;;
10617;SDS011;5356;43.526;26.534;2024-03-29T07:03:32;15.52;;;6.05;;
10617;SDS011;5356;43.526;26.534;2024-03-29T07:05:57;14.05;;;5.18;;
10617;SDS011;5356;43.526;26.534;2024-03-29T07:08:23;16.98;;;5.13;;
10617;SDS011;5356;43.526;26.534;2024-03-29T07:10:56;12.05;;;4.35;;
10617;SDS011;5356;43.526;26.534;2024-03-29T07:13:23;7.53;;;2.95;;
10617;SDS011;5356;43.526;26.534;2024-03-29T07:15:53;25.05;;;12.90;;
10617;SDS011;5356;43.526;26.534;2024-03-29T07:18:34;12.30;;;7.35;;
10617;SDS011;5356;43.526;26.534;2024-03-29T07:28:05;6.70;;;2.35;;
10617;SDS011;5356;43.526;26.534;2024-03-29T07:47:39;2.22;;;0.90;;
10617;SDS011;5356;43.526;26.534;2024-03-29T07:50:05;5.70;;;1.00;;
10617;SDS011;5356;43.526;26.534;2024-03-29T07:52:32;3.42;;;0.95;;
10617;SDS011;5356;43.526;26.534;2024-03-29T07:54:58;4.72;;;1.02;;
10617;SDS011;5356;43.526;26.534;2024-03-29T07:57:25;6.97;;;1.20;;
10617;SDS011;5356;43.526;26.534;2024-03-29T07:59:50;3.25;;;1.20;;
10617;SDS011;5356;43.526;26.534;2024-03-29T08:02:17;3.72;;;1.38;;
10617;SDS011;5356;43.526;26.534;2024-03-29T08:04:42;2.75;;;1.13;;
10617;SDS011;5356;43.526;26.534;2024-03-29T08:07:09;2.17;;;0.95;;
10617;SDS011;5356;43.526;26.534;2024-03-29T08:09:36;5.50;;;1.23;;
10617;SDS011;5356;43.526;26.534;2024-03-29T08:12:04;3.75;;;1.10;;
10617;SDS011;5356;43.526;26.534;2024-03-29T08:14:30;3.10;;;1.00;;
10617;SDS011;5356;43.526;26.534;2024-03-29T08:16:55;5.18;;;1.70;;
10617;SDS011;5356;43.526;26.534;2024-03-29T08:19:21;3.10;;;2.03;;
10617;SDS011;5356;43.526;26.534;2024-03-29T08:21:46;2.50;;;0.82;;
10617;SDS011;5356;43.526;26.534;2024-03-29T08:24:12;1.05;;;0.80;;
10617;SDS011;5356;43.526;26.534;2024-03-29T08:26:37;4.85;;;1.48;;
10617;SDS011;5356;43.526;26.534;2024-03-29T08:29:03;3.03;;;1.17;;
10617;SDS011;5356;43.526;26.534;2024-03-29T08:31:28;14.65;;;4.28;;
10617;SDS011;5356;43.526;26.534;2024-03-29T08:33:54;3.53;;;1.35;;
10617;SDS011;5356;43.526;26.534;2024-03-29T08:36:20;6.25;;;0.95;;
10617;SDS011;5356;43.526;26.534;2024-03-29T08:38:45;4.28;;;0.98;;
10617;SDS011;5356;43.526;26.534;2024-03-29T08:41:12;6.53;;;1.88;;
10617;SDS011;5356;43.526;26.534;2024-03-29T08:43:38;8.63;;;2.83;;
10617;SDS011;5356;43.526;26.534;2024-03-29T08:46:03;7.88;;;1.73;;
10617;SDS011;5356;43.526;26.534;2024-03-29T08:48:29;21.42;;;3.05;;
10617;SDS011;5356;43.526;26.534;2024-03-29T08:50:55;4.78;;;1.30;;
10617;SDS011;5356;43.526;26.534;2024-03-29T08:53:20;11.15;;;2.20;;
10617;SDS011;5356;43.526;26.534;2024-03-29T08:55:50;2.33;;;1.15;;
10617;SDS011;5356;43.526;26.534;2024-03-29T08:58:16;4.72;;;1.20;;
10617;SDS011;5356;43.526;26.534;2024-03-29T09:00:43;7.78;;;1.38;;
10617;SDS011;5356;43.526;26.534;2024-03-29T09:03:21;5.90;;;1.67;;
10617;SDS011;5356;43.526;26.534;2024-03-29T09:05:48;4.40;;;1.00;;
10617;SDS011;5356;43.526;26.534;2024-03-29T09:08:14;3.97;;;1.52;;
10617;SDS011;5356;43.526;26.534;2024-03-29T09:10:40;4.70;;;1.80;;
10617;SDS011;5356;43.526;26.534;2024-03-29T09:13:06;12.13;;;2.88;;
10617;SDS011;5356;43.526;26.534;2024-03-29T09:15:32;5.78;;;1.20;;
10617;SDS011;5356;43.526;26.534;2024-03-29T09:17:58;2.47;;;1.10;;
10617;SDS011;5356;43.526;26.534;2024-03-29T09:20:28;4.80;;;1.48;;
10617;SDS011;5356;43.526;26.534;2024-03-29T09:22:53;3.10;;;1.15;;
10617;SDS011;5356;43.526;26.534;2024-03-29T09:25:19;18.65;;;2.17;;
10617;SDS011;5356;43.526;26.534;2024-03-29T09:27:47;3.85;;;1.77;;
10617;SDS011;5356;43.526;26.534;2024-03-29T09:30:13;9.73;;;1.38;;
10617;SDS011;5356;43.526;26.534;2024-03-29T09:32:40;5.28;;;1.48;;
10617;SDS011;5356;43.526;26.534;2024-03-29T09:35:06;6.45;;;2.10;;
10617;SDS011;5356;43.526;26.534;2024-03-29T09:37:32;6.95;;;2.08;;
10617;SDS011;5356;43.526;26.534;2024-03-29T09:40:04;4.95;;;1.35;;
10617;SDS011;5356;43.526;26.534;2024-03-29T09:42:31;4.65;;;1.17;;
10617;SDS011;5356;43.526;26.534;2024-03-29T09:45:07;5.70;;;1.58;;
10617;SDS011;5356;43.526;26.534;2024-03-29T09:47:41;6.97;;;1.67;;
10617;SDS011;5356;43.526;26.534;2024-03-29T09:50:11;4.00;;;1.45;;
10617;SDS011;5356;43.526;26.534;2024-03-29T09:52:37;11.30;;;2.50;;
10617;SDS011;5356;43.526;26.534;2024-03-29T09:55:05;3.58;;;0.90;;
10617;SDS011;5356;43.526;26.534;2024-03-29T09:57:32;5.55;;;2.03;;
10617;SDS011;5356;43.526;26.534;2024-03-29T09:59:57;4.22;;;1.00;;
10617;SDS011;5356;43.526;26.534;2024-03-29T10:02:26;6.32;;;1.40;;
10617;SDS011;5356;43.526;26.534;2024-03-29T10:04:56;16.65;;;7.28;;
10617;SDS011;5356;43.526;26.534;2024-03-29T10:07:23;4.55;;;1.75;;
10617;SDS011;5356;43.526;26.534;2024-03-29T10:09:49;8.10;;;2.13;;
10617;SDS011;5356;43.526;26.534;2024-03-29T10:12:16;8.40;;;2.75;;
10617;SDS011;5356;43.526;26.534;2024-03-29T10:17:17;5.90;;;1.27;;
10617;SDS011;5356;43.526;26.534;2024-03-29T10:19:44;3.78;;;1.00;;
10617;SDS011;5356;43.526;26.534;2024-03-29T10:22:10;4.00;;;1.15;;
10617;SDS011;5356;43.526;26.534;2024-03-29T10:24:36;4.53;;;1.27;;
10617;SDS011;5356;43.526;26.534;2024-03-29T10:27:02;2.25;;;0.85;;
10617;SDS011;5356;43.526;26.534;2024-03-29T10:29:28;14.45;;;2.97;;
10617;SDS011;5356;43.526;26.534;2024-03-29T10:31:57;7.72;;;1.80;;
10617;SDS011;5356;43.526;26.534;2024-03-29T10:34:24;3.08;;;1.25;;
10617;SDS011;5356;43.526;26.534;2024-03-29T10:36:50;30.25;;;4.40;;
10617;SDS011;5356;43.526;26.534;2024-03-29T10:39:16;12.95;;;2.80;;
10617;SDS011;5356;43.526;26.534;2024-03-29T10:41:42;6.60;;;2.00;;
10617;SDS011;5356;43.526;26.534;2024-03-29T10:44:10;14.13;;;2.00;;
10617;SDS011;5356;43.526;26.534;2024-03-29T10:46:42;10.02;;;2.38;;
10617;SDS011;5356;43.526;26.534;2024-03-29T10:49:13;6.30;;;1.40;;
10617;SDS011;5356;43.526;26.534;2024-03-29T10:51:42;10.40;;;1.67;;
10617;SDS011;5356;43.526;26.534;2024-03-29T10:54:08;3.38;;;1.23;;
10617;SDS011;5356;43.526;26.534;2024-03-29T10:56:35;3.58;;;1.20;;
10617;SDS011;5356;43.526;26.534;2024-03-29T11:02:13;5.65;;;1.40;;
10617;SDS011;5356;43.526;26.534;2024-03-29T11:04:57;5.80;;;2.03;;
10617;SDS011;5356;43.526;26.534;2024-03-29T11:07:31;6.78;;;1.55;;
10617;SDS011;5356;43.526;26.534;2024-03-29T11:09:59;15.07;;;2.00;;
10617;SDS011;5356;43.526;26.534;2024-03-29T11:12:27;2.42;;;1.00;;
10617;SDS011;5356;43.526;26.534;2024-03-29T11:15:04;3.08;;;1.02;;
10617;SDS011;5356;43.526;26.534;2024-03-29T11:17:34;3.97;;;1.33;;
10617;SDS011;5356;43.526;26.534;2024-03-29T11:20:00;4.07;;;1.65;;
10617;SDS011;5356;43.526;26.534;2024-03-29T11:22:32;6.95;;;1.30;;
10617;SDS011;5356;43.526;26.534;2024-03-29T11:25:00;3.33;;;1.08;;
10617;SDS011;5356;43.526;26.534;2024-03-29T11:27:29;3.20;;;1.05;;
10617;SDS011;5356;43.526;26.534;2024-03-29T11:30:07;4.78;;;0.98;;
10617;SDS011;5356;43.526;26.534;2024-03-29T11:33:07;18.92;;;3.65;;
10617;SDS011;5356;43.526;26.534;2024-03-29T11:36:20;4.55;;;1.23;;
10617;SDS011;5356;43.526;26.534;2024-03-29T11:39:06;2.97;;;1.10;;
10617;SDS011;5356;43.526;26.534;2024-03-29T11:41:45;3.38;;;1.00;;
10617;SDS011;5356;43.526;26.534;2024-03-29T11:44:27;2.28;;;1.00;;
10617;SDS011;5356;43.526;26.534;2024-03-29T11:46:55;5.15;;;1.48;;
10617;SDS011;5356;43.526;26.534;2024-03-29T11:49:27;3.88;;;0.95;;
10617;SDS011;5356;43.526;26.534;2024-03-29T11:52:04;3.90;;;1.20;;
10617;SDS011;5356;43.526;26.534;2024-03-29T11:54:47;5.18;;;1.40;;
10617;SDS011;5356;43.526;26.534;2024-03-29T11:57:13;3.00;;;1.50;;
10617;SDS011;5356;43.526;26.534;2024-03-29T12:02:28;2.33;;;1.35;;
10617;SDS011;5356;43.526;26.534;2024-03-29T12:05:04;4.07;;;1.30;;
10617;SDS011;5356;43.526;26.534;2024-03-29T12:07:49;6.00;;;1.33;;
10617;SDS011;5356;43.526;26.534;2024-03-29T12:10:39;3.35;;;0.85;;
10617;SDS011;5356;43.526;26.534;2024-03-29T12:13:29;2.03;;;1.05;;
10617;SDS011;5356;43.526;26.534;2024-03-29T12:16:33;2.25;;;1.10;;
10617;SDS011;5356;43.526;26.534;2024-03-29T12:19:25;3.92;;;1.35;;
10617;SDS011;5356;43.526;26.534;2024-03-29T12:28:38;3.78;;;2.00;;
10617;SDS011;5356;43.526;26.534;2024-03-29T12:31:23;2.53;;;1.10;;
10617;SDS011;5356;43.526;26.534;2024-03-29T12:34:09;4.32;;;1.17;;
10617;SDS011;5356;43.526;26.534;2024-03-29T12:37:13;1.52;;;0.90;;
10617;SDS011;5356;43.526;26.534;2024-03-29T12:40:03;3.92;;;1.10;;
10617;SDS011;5356;43.526;26.534;2024-03-29T12:42:52;2.17;;;1.02;;
10617;SDS011;5356;43.526;26.534;2024-03-29T12:45:27;5.53;;;1.63;;
10617;SDS011;5356;43.526;26.534;2024-03-29T12:48:01;7.13;;;1.10;;
10617;SDS011;5356;43.526;26.534;2024-03-29T12:50:31;6.35;;;1.20;;
10617;SDS011;5356;43.526;26.534;2024-03-29T12:53:13;11.17;;;2.17;;
10617;SDS011;5356;43.526;26.534;2024-03-29T12:55:41;2.45;;;1.17;;
10617;SDS011;5356;43.526;26.534;2024-03-29T13:00:52;6.65;;;1.40;;
10617;SDS011;5356;43.526;26.534;2024-03-29T13:06:12;4.57;;;1.60;;
10617;SDS011;5356;43.526;26.534;2024-03-29T13:08:38;6.63;;;1.92;;
10617;SDS011;5356;43.526;26.534;2024-03-29T13:11:05;4.53;;;1.65;;
10617;SDS011;5356;43.526;26.534;2024-03-29T13:13:30;7.10;;;1.65;;
10617;SDS011;5356;43.526;26.534;2024-03-29T13:15:56;11.73;;;1.48;;
10617;SDS011;5356;43.526;26.534;2024-03-29T13:18:21;3.53;;;1.02;;
10617;SDS011;5356;43.526;26.534;2024-03-29T13:20:47;5.68;;;1.33;;
10617;SDS011;5356;43.526;26.534;2024-03-29T13:23:12;3.40;;;1.38;;
10617;SDS011;5356;43.526;26.534;2024-03-29T13:25:39;3.22;;;1.08;;
10617;SDS011;5356;43.526;26.534;2024-03-29T13:28:04;2.90;;;1.05;;
10617;SDS011;5356;43.526;26.534;2024-03-29T13:30:32;4.03;;;0.93;;
10617;SDS011;5356;43.526;26.534;2024-03-29T13:32:58;2.83;;;0.90;;
10617;SDS011;5356;43.526;26.534;2024-03-29T13:35:23;1.30;;;0.88;;
10617;SDS011;5356;43.526;26.534;2024-03-29T13:37:49;2.80;;;1.00;;
10617;SDS011;5356;43.526;26.534;2024-03-29T13:40:16;3.88;;;1.10;;
10617;SDS011;5356;43.526;26.534;2024-03-29T13:42:44;5.93;;;1.50;;
10617;SDS011;5356;43.526;26.534;2024-03-29T13:45:14;7.40;;;1.90;;
10617;SDS011;5356;43.526;26.534;2024-03-29T13:47:40;2.53;;;1.10;;
10617;SDS011;5356;43.526;26.534;2024-03-29T13:50:07;3.83;;;1.20;;
10617;SDS011;5356;43.526;26.534;2024-03-29T13:52:34;2.10;;;0.80;;
10617;SDS011;5356;43.526;26.534;2024-03-29T13:55:00;5.57;;;1.27;;
10617;SDS011;5356;43.526;26.534;2024-03-29T13:57:27;11.95;;;2.45;;
10617;SDS011;5356;43.526;26.534;2024-03-29T13:59:52;7.88;;;2.30;;
10617;SDS011;5356;43.526;26.534;2024-03-29T14:02:18;6.43;;;1.63;;
10617;SDS011;5356;43.526;26.534;2024-03-29T14:04:45;4.22;;;1.20;;
10617;SDS011;5356;43.526;26.534;2024-03-29T14:07:12;7.05;;;1.75;;
10617;SDS011;5356;43.526;26.534;2024-03-29T14:09:41;3.97;;;1.70;;
10617;SDS011;5356;43.526;26.534;2024-03-29T14:12:07;9.30;;;1.50;;
10617;SDS011;5356;43.526;26.534;2024-03-29T14:14:33;3.72;;;1.65;;
10617;SDS011;5356;43.526;26.534;2024-03-29T14:16:59;9.68;;;1.35;;
10617;SDS011;5356;43.526;26.534;2024-03-29T14:19:29;6.25;;;1.27;;
10617;SDS011;5356;43.526;26.534;2024-03-29T14:21:56;4.55;;;1.30;;
10617;SDS011;5356;43.526;26.534;2024-03-29T14:24:21;4.20;;;1.15;;
10617;SDS011;5356;43.526;26.534;2024-03-29T14:26:49;4.07;;;1.25;;
10617;SDS011;5356;43.526;26.534;2024-03-29T14:29:15;2.28;;;0.80;;
10617;SDS011;5356;43.526;26.534;2024-03-29T14:31:43;8.27;;;1.20;;
10617;SDS011;5356;43.526;26.534;2024-03-29T14:34:10;14.40;;;2.63;;
10617;SDS011;5356;43.526;26.534;2024-03-29T14:36:35;4.30;;;1.45;;
10617;SDS011;5356;43.526;26.534;2024-03-29T14:39:01;8.20;;;2.55;;
10617;SDS011;5356;43.526;26.534;2024-03-29T14:41:27;3.10;;;0.93;;
10617;SDS011;5356;43.526;26.534;2024-03-29T14:43:53;3.50;;;1.05;;
10617;SDS011;5356;43.526;26.534;2024-03-29T14:46:20;4.55;;;1.23;;
10617;SDS011;5356;43.526;26.534;2024-03-29T14:48:46;12.70;;;2.28;;
10617;SDS011;5356;43.526;26.534;2024-03-29T14:51:12;9.82;;;1.50;;
10617;SDS011;5356;43.526;26.534;2024-03-29T14:53:37;5.30;;;1.13;;
10617;SDS011;5356;43.526;26.534;2024-03-29T14:56:03;2.75;;;1.52;;
10617;SDS011;5356;43.526;26.534;2024-03-29T14:58:29;3.55;;;0.90;;
10617;SDS011;5356;43.526;26.534;2024-03-29T15:00:55;6.68;;;1.48;;
10617;SDS011;5356;43.526;26.534;2024-03-29T15:03:20;10.40;;;2.38;;
10617;SDS011;5356;43.526;26.534;2024-03-29T15:05:46;3.90;;;1.10;;
10617;SDS011;5356;43.526;26.534;2024-03-29T15:08:11;2.08;;;0.80;;
10617;SDS011;5356;43.526;26.534;2024-03-29T15:10:42;1.77;;;1.00;;
10617;SDS011;5356;43.526;26.534;2024-03-29T15:13:08;8.20;;;1.73;;
10617;SDS011;5356;43.526;26.534;2024-03-29T15:15:34;5.80;;;1.40;;
10617;SDS011;5356;43.526;26.534;2024-03-29T15:18:02;3.70;;;1.38;;
10617;SDS011;5356;43.526;26.534;2024-03-29T15:20:28;2.13;;;0.93;;
10617;SDS011;5356;43.526;26.534;2024-03-29T15:22:54;3.25;;;1.10;;
10617;SDS011;5356;43.526;26.534;2024-03-29T15:25:21;6.65;;;2.40;;
10617;SDS011;5356;43.526;26.534;2024-03-29T15:27:47;4.05;;;1.30;;
10617;SDS011;5356;43.526;26.534;2024-03-29T15:30:31;19.67;;;3.20;;
10617;SDS011;5356;43.526;26.534;2024-03-29T15:32:59;19.17;;;11.95;;